createdAt,value
2023-04-27T00:01:15.082Z,55.69
2023-04-27T00:03:42.823Z,56.01
2023-04-27T00:06:10.190Z,56.01
2023-04-27T00:08:37.976Z,55.77
2023-04-27T00:11:05.328Z,56.03
2023-04-27T00:13:32.440Z,55.63
2023-04-27T00:16:03.621Z,55.54
2023-04-27T00:18:32.260Z,55.73
2023-04-27T00:20:59.536Z,56.05
2023-04-27T00:23:27.018Z,55.91
2023-04-27T00:25:54.328Z,56.13
2023-04-27T00:28:21.740Z,55.61
2023-04-27T00:30:49.323Z,55.69
2023-04-27T00:33:17.605Z,55.97
2023-04-27T00:35:44.582Z,56.04
2023-04-27T00:38:12.333Z,55.95
2023-04-27T00:40:40.081Z,55.85
2023-04-27T00:43:08.817Z,56.12
2023-04-27T00:45:43.041Z,55.75
2023-04-27T00:48:13.775Z,55.67
2023-04-27T00:50:41.288Z,56.02
2023-04-27T00:53:09.265Z,55.69
2023-04-27T00:55:36.455Z,56.01
2023-04-27T00:58:08.348Z,55.60
2023-04-27T01:00:40.277Z,56.06
2023-04-27T01:03:08.130Z,55.93
2023-04-27T01:05:37.593Z,55.62
2023-04-27T01:08:05.479Z,56.05
2023-04-27T01:10:32.579Z,55.63
2023-04-27T01:13:00.139Z,55.94
2023-04-27T01:15:27.773Z,55.62
2023-04-27T01:17:59.428Z,55.80
2023-04-27T01:20:32.699Z,55.54
2023-04-27T01:23:00.205Z,55.74
2023-04-27T01:25:27.861Z,55.72
2023-04-27T01:27:55.192Z,55.86
2023-04-27T01:30:24.826Z,55.75
2023-04-27T01:32:52.219Z,55.58
2023-04-27T01:35:20.007Z,55.64
2023-04-27T01:37:47.118Z,55.95
2023-04-27T01:40:14.376Z,55.57
2023-04-27T01:42:41.452Z,55.50
2023-04-27T01:45:09.796Z,55.56
2023-04-27T01:47:37.988Z,55.67
2023-04-27T01:50:06.620Z,55.77
2023-04-27T01:52:33.761Z,55.46
2023-04-27T01:55:02.826Z,55.22
2023-04-27T01:57:30.510Z,55.56
2023-04-27T01:59:57.628Z,55.47
2023-04-27T02:02:24.976Z,55.17
2023-04-27T02:04:52.502Z,55.09
2023-04-27T02:07:20.136Z,55.52
2023-04-27T02:09:47.439Z,55.07
2023-04-27T02:12:14.797Z,54.90
2023-04-27T02:14:41.896Z,55.10
2023-04-27T02:17:08.991Z,55.22
2023-04-27T02:19:36.768Z,54.96
2023-04-27T02:22:05.793Z,54.71
2023-04-27T02:24:32.935Z,54.68
2023-04-27T02:27:01.295Z,54.68
2023-04-27T02:29:32.028Z,54.71
2023-04-27T02:31:59.698Z,54.50
2023-04-27T02:34:26.908Z,54.65
2023-04-27T02:36:54.245Z,54.40
2023-04-27T02:39:21.375Z,54.39
2023-04-27T02:41:48.532Z,54.23
2023-04-27T02:44:15.811Z,54.25
2023-04-27T02:46:46.086Z,54.34
2023-04-27T02:49:13.508Z,53.80
2023-04-27T02:51:40.992Z,54.02
2023-04-27T02:54:09.372Z,54.01
2023-04-27T02:56:36.489Z,54.06
2023-04-27T02:59:04.202Z,54.10
2023-04-27T03:01:31.544Z,54.03
2023-04-27T03:03:59.188Z,53.76
2023-04-27T03:06:26.366Z,53.80
2023-04-27T03:08:53.817Z,53.81
2023-04-27T03:11:21.195Z,53.80
2023-04-27T03:13:48.348Z,54.03
2023-04-27T03:16:15.476Z,54.10
2023-04-27T03:18:42.665Z,53.78
2023-04-27T03:21:13.606Z,53.54
2023-04-27T03:23:46.832Z,53.30
2023-04-27T03:26:15.237Z,53.20
2023-04-27T03:28:42.733Z,53.35
2023-04-27T03:31:16.060Z,53.61
2023-04-27T03:33:43.374Z,53.51
2023-04-27T03:36:13.214Z,53.60
2023-04-27T03:38:41.960Z,53.34
2023-04-27T03:41:09.103Z,53.39
2023-04-27T03:43:36.523Z,53.76
2023-04-27T03:46:03.740Z,53.76
2023-04-27T03:48:31.227Z,53.44
2023-04-27T03:50:58.354Z,53.51
2023-04-27T03:53:25.540Z,53.72
2023-04-27T03:55:52.817Z,53.49
2023-04-27T03:58:20.114Z,53.67
2023-04-27T04:01:06.541Z,53.84
2023-04-27T04:03:33.859Z,53.94
2023-04-27T04:06:01.481Z,53.94
2023-04-27T04:08:29.292Z,53.67
2023-04-27T04:11:01.059Z,53.75
2023-04-27T04:13:30.798Z,53.75
2023-04-27T04:16:09.486Z,53.60
2023-04-27T04:18:37.351Z,53.70
2023-04-27T04:21:06.547Z,53.71
2023-04-27T04:23:33.592Z,53.83
2023-04-27T04:26:02.407Z,53.80
2023-04-27T04:28:36.881Z,53.40
2023-04-27T04:31:06.666Z,53.58
2023-04-27T04:33:34.473Z,53.95
2023-04-27T04:36:05.341Z,53.63
2023-04-27T04:38:33.687Z,53.88
2023-04-27T04:41:02.508Z,54.06
2023-04-27T04:43:32.482Z,53.76
2023-04-27T04:46:02.478Z,53.85
2023-04-27T04:48:29.801Z,53.92
2023-04-27T04:50:57.417Z,53.88
2023-04-27T04:53:24.585Z,53.99
2023-04-27T04:55:51.763Z,54.11
2023-04-27T04:58:19.084Z,53.85
2023-04-27T05:00:46.239Z,53.78
2023-04-27T05:03:13.911Z,53.98
2023-04-27T05:05:41.138Z,53.97
2023-04-27T05:08:08.289Z,54.11
2023-04-27T05:10:35.367Z,54.03
2023-04-27T05:13:03.146Z,54.29
2023-04-27T05:15:31.573Z,54.07
2023-04-27T05:17:58.942Z,54.30
2023-04-27T05:20:29.406Z,54.14
2023-04-27T05:22:56.972Z,54.17
2023-04-27T05:25:24.073Z,54.01
2023-04-27T05:27:51.566Z,54.28
2023-04-27T05:30:24.725Z,54.15
2023-04-27T05:32:51.978Z,54.06
2023-04-27T05:35:19.093Z,54.42
2023-04-27T05:37:48.783Z,54.21
2023-04-27T05:40:15.919Z,54.68
2023-04-27T05:42:43.040Z,54.59
2023-04-27T05:45:10.977Z,54.81
2023-04-27T05:47:49.883Z,54.70
2023-04-27T05:50:22.098Z,54.64
2023-04-27T05:52:49.127Z,54.80
2023-04-27T05:55:19.243Z,54.40
2023-04-27T05:57:57.163Z,54.38
2023-04-27T06:00:43.104Z,54.08
2023-04-27T06:03:10.504Z,54.37
2023-04-27T06:05:38.206Z,54.20
2023-04-27T06:08:11.833Z,54.13
2023-04-27T06:10:44.345Z,54.50
2023-04-27T06:13:11.923Z,54.12
2023-04-27T06:15:40.613Z,54.16
2023-04-27T06:18:08.045Z,53.89
2023-04-27T06:20:35.591Z,53.65
2023-04-27T06:23:07.962Z,53.91
2023-04-27T06:25:40.534Z,53.65
2023-04-27T06:28:07.765Z,53.31
2023-04-27T06:31:18.336Z,52.72
2023-04-27T06:33:48.503Z,52.79
2023-04-27T06:36:18.578Z,52.85
2023-04-27T06:38:45.939Z,52.84
2023-04-27T06:41:13.297Z,52.52
2023-04-27T06:43:40.529Z,52.35
2023-04-27T06:46:10.026Z,52.11
2023-04-27T06:51:27.044Z,51.88
2023-04-27T06:54:09.181Z,51.56
2023-04-27T06:56:39.563Z,51.96
2023-04-27T06:59:12.506Z,51.23
2023-04-27T07:01:44.541Z,51.07
2023-04-27T07:04:18.678Z,50.99
2023-04-27T07:06:48.923Z,50.92
2023-04-27T07:09:27.428Z,50.49
2023-04-27T07:11:55.607Z,50.59
2023-04-27T07:14:32.781Z,50.32
2023-04-27T07:17:02.339Z,49.79
2023-04-27T07:19:30.025Z,49.73
2023-04-27T07:22:02.740Z,48.44
2023-04-27T07:24:32.406Z,47.23
2023-04-27T07:27:06.158Z,46.59
2023-04-27T07:29:34.359Z,46.68
2023-04-27T07:32:02.327Z,46.04
2023-04-27T07:34:49.227Z,46.08
2023-04-27T07:37:29.184Z,45.36
2023-04-27T07:40:02.829Z,45.26
2023-04-27T07:42:34.675Z,46.10
2023-04-27T07:45:05.164Z,45.80
2023-04-27T07:47:42.846Z,45.31
2023-04-27T07:50:26.599Z,45.68
2023-04-27T07:52:56.923Z,44.81
2023-04-27T07:55:32.916Z,45.79
2023-04-27T08:00:56.340Z,44.99
2023-04-27T08:03:24.215Z,44.71
2023-04-27T08:05:59.838Z,44.52
2023-04-27T08:08:30.359Z,44.30
2023-04-27T08:11:00.532Z,44.41
2023-04-27T08:13:27.818Z,44.52
2023-04-27T08:15:58.765Z,44.34
2023-04-27T08:18:27.405Z,43.74
2023-04-27T08:20:56.769Z,43.32
2023-04-27T08:23:28.613Z,42.96
2023-04-27T08:26:01.627Z,42.67
2023-04-27T08:28:33.613Z,42.27
2023-04-27T08:31:03.718Z,42.37
2023-04-27T08:33:30.815Z,42.31
2023-04-27T08:36:10.393Z,41.18
2023-04-27T08:38:40.010Z,41.79
2023-04-27T08:41:20.363Z,41.29
2023-04-27T08:43:55.647Z,40.25
2023-04-27T08:46:27.221Z,41.94
2023-04-27T08:48:55.125Z,42.31
2023-04-27T08:51:22.909Z,41.18
2023-04-27T08:53:53.145Z,40.96
2023-04-27T08:56:20.987Z,41.05
2023-04-27T08:58:49.981Z,41.30
2023-04-27T09:01:17.318Z,40.42
2023-04-27T09:03:50.196Z,40.78
2023-04-27T09:06:18.627Z,39.43
2023-04-27T09:08:48.016Z,39.74
2023-04-27T09:11:28.358Z,39.30
2023-04-27T09:13:55.975Z,39.02
2023-04-27T09:16:24.842Z,39.09
2023-04-27T09:18:53.295Z,39.04
2023-04-27T09:21:32.529Z,38.23
2023-04-27T09:24:12.485Z,37.44
2023-04-27T09:26:40.423Z,37.80
2023-04-27T09:29:08.571Z,38.22
2023-04-27T09:31:36.441Z,38.31
2023-04-27T09:34:04.207Z,37.98
2023-04-27T09:36:32.822Z,37.48
2023-04-27T09:39:04.916Z,37.64
2023-04-27T09:41:33.413Z,37.06
2023-04-27T09:44:02.268Z,37.59
2023-04-27T09:46:33.433Z,37.32
2023-04-27T09:49:04.629Z,36.94
2023-04-27T09:51:32.080Z,36.81
2023-04-27T09:54:05.863Z,36.59
2023-04-27T09:56:41.984Z,36.22
2023-04-27T09:59:50.775Z,35.72
2023-04-27T10:02:25.296Z,36.73
2023-04-27T10:05:02.981Z,38.26
2023-04-27T10:07:32.218Z,37.20
2023-04-27T10:10:03.321Z,37.20
2023-04-27T10:12:38.343Z,36.96
2023-04-27T10:15:16.919Z,36.22
2023-04-27T10:17:51.379Z,37.24
2023-04-27T10:20:29.916Z,36.75
2023-04-27T10:22:57.039Z,37.17
2023-04-27T10:25:32.074Z,36.85
2023-04-27T10:28:01.661Z,35.71
2023-04-27T10:30:34.698Z,34.99
2023-04-27T10:33:07.517Z,35.74
2023-04-27T10:35:40.756Z,35.68
2023-04-27T10:38:16.471Z,34.91
2023-04-27T10:41:01.767Z,35.36
2023-04-27T10:43:34.366Z,35.63
2023-04-27T10:46:16.155Z,35.02
2023-04-27T10:48:44.691Z,35.51
2023-04-27T10:51:17.851Z,35.87
2023-04-27T10:53:45.096Z,35.29
2023-04-27T10:56:13.420Z,34.82
2023-04-27T10:58:48.895Z,35.41
2023-04-27T11:01:27.471Z,34.08
2023-04-27T11:03:59.894Z,34.76
2023-04-27T11:06:28.682Z,34.14
2023-04-27T11:08:56.819Z,33.14
2023-04-27T11:11:24.494Z,33.27
2023-04-27T11:13:55.775Z,32.64
2023-04-27T11:16:24.971Z,31.84
2023-04-27T11:18:52.656Z,32.12
2023-04-27T11:21:22.245Z,31.46
2023-04-27T11:23:52.392Z,31.26
2023-04-27T11:26:26.458Z,32.00
2023-04-27T11:29:12.574Z,32.27
2023-04-27T11:31:47.566Z,32.82
2023-04-27T11:34:19.326Z,33.21
2023-04-27T11:37:07.099Z,33.53
2023-04-27T11:39:41.857Z,33.34
2023-04-27T11:42:25.056Z,32.87
2023-04-27T11:45:08.373Z,33.46
2023-04-27T11:47:36.225Z,33.22
2023-04-27T11:50:07.415Z,33.82
2023-04-27T11:52:35.738Z,33.21
2023-04-27T11:55:09.152Z,33.24
2023-04-27T11:57:37.012Z,33.42
2023-04-27T12:00:11.498Z,33.14
2023-04-27T12:02:42.997Z,32.83
2023-04-27T12:05:12.541Z,32.96
2023-04-27T12:07:40.406Z,33.50
2023-04-27T12:10:08.358Z,33.49
2023-04-27T12:12:36.250Z,33.26
2023-04-27T12:15:03.543Z,33.25
2023-04-27T12:17:30.746Z,33.10
2023-04-27T12:19:58.127Z,32.72
2023-04-27T12:22:25.292Z,32.26
2023-04-27T12:24:52.620Z,31.98
2023-04-27T12:27:19.876Z,32.57
2023-04-27T12:29:47.119Z,32.77
2023-04-27T12:32:14.507Z,33.63
2023-04-27T12:34:42.971Z,32.79
2023-04-27T12:37:10.001Z,32.86
2023-04-27T12:39:37.229Z,33.13
2023-04-27T12:42:04.352Z,32.65
2023-04-27T12:44:31.422Z,31.68
2023-04-27T12:46:58.521Z,30.93
2023-04-27T12:49:25.749Z,31.61
2023-04-27T12:51:54.453Z,32.35
2023-04-27T12:54:21.783Z,31.55
2023-04-27T12:56:49.030Z,32.84
2023-04-27T12:59:17.171Z,33.38
2023-04-27T13:01:46.002Z,34.08
2023-04-27T13:04:20.316Z,32.84
2023-04-27T13:06:48.316Z,31.96
2023-04-27T13:09:17.059Z,32.43
2023-04-27T13:11:44.355Z,32.66
2023-04-27T13:14:13.412Z,32.59
2023-04-27T13:16:42.537Z,34.06
2023-04-27T13:19:09.674Z,34.17
2023-04-27T13:21:37.016Z,34.71
2023-04-27T13:24:04.362Z,34.83
2023-04-27T13:26:33.897Z,34.84
2023-04-27T13:29:02.329Z,35.47
2023-04-27T13:31:33.163Z,35.36
2023-04-27T13:34:01.328Z,35.74
2023-04-27T13:36:29.593Z,35.41
2023-04-27T13:38:57.091Z,36.44
2023-04-27T13:41:24.326Z,35.92
2023-04-27T13:43:51.460Z,35.62
2023-04-27T13:46:18.724Z,35.22
2023-04-27T13:48:45.961Z,35.58
2023-04-27T13:51:13.256Z,36.16
2023-04-27T13:53:40.317Z,35.91
2023-04-27T13:56:07.390Z,36.81
2023-04-27T13:58:34.672Z,37.08
2023-04-27T14:01:02.084Z,38.18
2023-04-27T14:03:30.002Z,37.88
2023-04-27T14:05:57.350Z,37.41
2023-04-27T14:08:24.480Z,38.08
2023-04-27T14:10:51.569Z,38.72
2023-04-27T14:13:19.265Z,38.19
2023-04-27T14:15:49.510Z,38.67
2023-04-27T14:18:16.796Z,38.92
2023-04-27T14:20:44.917Z,38.36
2023-04-27T14:23:11.957Z,38.38
2023-04-27T14:25:39.370Z,37.58
2023-04-27T14:28:09.747Z,37.36
2023-04-27T14:30:38.644Z,35.91
2023-04-27T14:33:05.768Z,35.13
2023-04-27T14:35:35.965Z,34.83
2023-04-27T14:38:03.905Z,35.23
2023-04-27T14:40:31.887Z,34.31
2023-04-27T14:42:59.509Z,35.28
2023-04-27T14:45:33.526Z,35.25
2023-04-27T14:48:07.710Z,36.01
2023-04-27T14:50:34.977Z,37.52
2023-04-27T14:53:02.070Z,37.61
2023-04-27T14:55:32.164Z,37.77
2023-04-27T14:57:59.238Z,36.82
2023-04-27T15:00:26.412Z,36.85
2023-04-27T15:02:54.580Z,37.27
2023-04-27T15:05:21.778Z,36.55
2023-04-27T15:07:48.915Z,36.71
2023-04-27T15:10:16.146Z,36.94
2023-04-27T15:12:43.279Z,36.08
2023-04-27T15:15:10.697Z,35.39
2023-04-27T15:17:37.818Z,35.15
2023-04-27T15:20:06.034Z,34.31
2023-04-27T15:22:33.166Z,35.07
2023-04-27T15:25:00.272Z,34.95
2023-04-27T15:27:27.722Z,34.44
2023-04-27T15:29:55.149Z,34.95
2023-04-27T15:32:24.747Z,34.71
2023-04-27T15:34:52.041Z,34.67
2023-04-27T15:37:19.395Z,34.32
2023-04-27T15:39:46.743Z,34.20
2023-04-27T15:42:13.811Z,34.94
2023-04-27T15:44:40.843Z,34.40
2023-04-27T15:47:08.140Z,33.64
2023-04-27T15:49:49.872Z,34.29
2023-04-27T15:52:23.781Z,34.01
2023-04-27T15:54:51.113Z,34.51
2023-04-27T15:57:21.319Z,34.31
2023-04-27T15:59:48.577Z,34.50
2023-04-27T16:02:16.104Z,35.03
2023-04-27T16:04:43.410Z,34.94
2023-04-27T16:07:10.549Z,34.69
2023-04-27T16:09:37.804Z,35.43
2023-04-27T16:12:05.443Z,35.56
2023-04-27T16:14:32.722Z,35.10
2023-04-27T16:17:02.675Z,35.60
2023-04-27T16:19:30.313Z,35.73
2023-04-27T16:21:57.391Z,36.11
2023-04-27T16:24:25.699Z,35.35
2023-04-27T16:26:52.895Z,35.41
2023-04-27T16:29:20.043Z,34.91
2023-04-27T16:31:50.288Z,35.50
2023-04-27T16:34:17.372Z,35.20
2023-04-27T16:36:44.700Z,36.24
2023-04-27T16:39:11.964Z,36.22
2023-04-27T16:41:39.183Z,36.67
2023-04-27T16:44:07.242Z,37.41
2023-04-27T16:46:34.374Z,38.09
2023-04-27T16:49:03.833Z,37.64
2023-04-27T16:51:31.264Z,38.79
2023-04-27T16:53:58.584Z,39.28
2023-04-27T16:56:27.637Z,40.00
2023-04-27T16:58:55.017Z,41.17
2023-04-27T17:01:24.374Z,41.31
2023-04-27T17:03:51.780Z,42.81
2023-04-27T17:06:19.147Z,44.67
2023-04-27T17:08:46.316Z,44.89
2023-04-27T17:11:20.024Z,45.51
2023-04-27T17:13:49.679Z,45.01
2023-04-27T17:16:18.288Z,46.57
2023-04-27T17:18:49.716Z,46.51
2023-04-27T17:21:17.499Z,46.98
2023-04-27T17:23:47.635Z,47.65
2023-04-27T17:26:19.986Z,47.67
2023-04-27T17:28:47.858Z,47.36
2023-04-27T17:31:15.783Z,48.07
2023-04-27T17:33:43.840Z,48.63
2023-04-27T17:36:11.631Z,49.25
2023-04-27T17:38:38.750Z,48.22
2023-04-27T17:41:06.866Z,48.89
2023-04-27T17:43:34.176Z,49.54
2023-04-27T17:46:01.171Z,49.21
2023-04-27T17:48:28.326Z,49.56
2023-04-27T17:50:55.435Z,49.55
2023-04-27T17:53:22.580Z,50.62
2023-04-27T17:55:49.620Z,50.18
2023-04-27T17:58:19.623Z,50.73
2023-04-27T18:00:46.733Z,50.83
2023-04-27T18:03:14.041Z,50.96
2023-04-27T18:05:41.677Z,51.60
2023-04-27T18:08:08.698Z,51.31
2023-04-27T18:10:36.390Z,52.68
2023-04-27T18:13:03.681Z,53.52
2023-04-27T18:15:30.880Z,53.03
2023-04-27T18:17:58.069Z,54.19
2023-04-27T18:20:27.324Z,54.08
2023-04-27T18:22:54.965Z,54.36
2023-04-27T18:25:22.041Z,53.36
2023-04-27T18:27:55.358Z,54.04
2023-04-27T18:30:25.718Z,54.52
2023-04-27T18:32:52.885Z,55.08
2023-04-27T18:35:20.243Z,54.12
2023-04-27T18:37:48.505Z,54.09
2023-04-27T18:40:21.267Z,54.41
2023-04-27T18:42:49.031Z,55.44
2023-04-27T18:45:16.360Z,56.25
2023-04-27T18:47:46.221Z,55.22
2023-04-27T18:50:14.015Z,54.91
2023-04-27T18:52:43.335Z,55.42
2023-04-27T18:55:17.549Z,55.09
2023-04-27T18:57:45.226Z,55.57
2023-04-27T19:00:13.198Z,54.85
2023-04-27T19:02:40.843Z,56.04
2023-04-27T19:05:12.821Z,55.07
2023-04-27T19:07:41.079Z,55.30
2023-04-27T19:10:09.855Z,54.72
2023-04-27T19:12:37.103Z,54.79
2023-04-27T19:15:04.936Z,54.90
2023-04-27T19:17:32.296Z,55.21
2023-04-27T19:20:04.800Z,54.22
2023-04-27T19:22:34.447Z,55.03
2023-04-27T19:25:01.730Z,54.71
2023-04-27T19:27:29.232Z,54.33
2023-04-27T19:29:58.558Z,54.78
2023-04-27T19:32:27.685Z,56.23
2023-04-27T19:34:56.443Z,55.77
2023-04-27T19:37:27.376Z,55.37
2023-04-27T19:39:54.695Z,55.93
2023-04-27T19:42:24.992Z,56.75
2023-04-27T19:44:52.252Z,56.41
2023-04-27T19:47:19.427Z,55.47
2023-04-27T19:49:46.748Z,56.03
2023-04-27T19:52:17.087Z,56.77
2023-04-27T19:54:46.514Z,56.29
2023-04-27T19:57:13.503Z,55.45
2023-04-27T19:59:42.334Z,55.16
2023-04-27T20:02:12.641Z,55.24
2023-04-27T20:04:41.707Z,56.08
2023-04-27T20:07:12.822Z,56.77
2023-04-27T20:09:40.519Z,57.75
2023-04-27T20:12:37.218Z,57.42
2023-04-27T20:15:09.670Z,57.31
2023-04-27T20:17:37.219Z,58.15
2023-04-27T20:20:10.783Z,58.52
2023-04-27T20:22:39.568Z,57.41
2023-04-27T20:25:09.212Z,56.82
2023-04-27T20:27:37.293Z,57.78
2023-04-27T20:30:06.104Z,57.90
2023-04-27T20:32:33.510Z,57.07
2023-04-27T20:35:02.706Z,57.63
2023-04-27T20:37:30.550Z,57.18
2023-04-27T20:39:58.085Z,57.63
2023-04-27T20:42:25.581Z,57.89
2023-04-27T20:44:55.041Z,57.40
2023-04-27T20:47:22.674Z,57.75
2023-04-27T20:49:50.986Z,56.95
2023-04-27T20:52:18.232Z,57.18
2023-04-27T20:54:49.914Z,56.50
2023-04-27T20:57:17.099Z,57.10
2023-04-27T20:59:45.775Z,56.85
2023-04-27T21:02:15.367Z,57.61
2023-04-27T21:04:43.975Z,56.73
2023-04-27T21:07:11.872Z,56.85
2023-04-27T21:09:39.280Z,56.34
2023-04-27T21:12:10.632Z,56.44
2023-04-27T21:14:41.915Z,56.68
2023-04-27T21:17:11.224Z,56.67
2023-04-27T21:19:43.793Z,56.90
2023-04-27T21:22:12.025Z,57.20
2023-04-27T21:24:45.202Z,57.55
2023-04-27T21:27:13.013Z,57.99
2023-04-27T21:29:40.964Z,57.33
2023-04-27T21:32:10.098Z,57.19
2023-04-27T21:34:37.415Z,58.14
2023-04-27T21:37:05.993Z,57.43
2023-04-27T21:39:33.491Z,57.92
2023-04-27T21:42:01.053Z,57.58
2023-04-27T21:44:28.804Z,57.36
2023-04-27T21:46:57.055Z,57.84
2023-04-27T21:49:24.670Z,58.63
2023-04-27T21:51:52.877Z,57.51
2023-04-27T21:54:20.479Z,57.34
2023-04-27T21:56:48.441Z,57.39
2023-04-27T21:59:16.840Z,57.50
2023-04-27T22:01:45.435Z,57.74
2023-04-27T22:04:13.178Z,57.71
2023-04-27T22:06:43.089Z,58.71
2023-04-27T22:09:12.639Z,58.53
2023-04-27T22:11:40.539Z,58.02
2023-04-27T22:14:08.680Z,57.89
2023-04-27T22:16:36.878Z,58.06
2023-04-27T22:19:04.421Z,58.83
2023-04-27T22:21:31.980Z,57.91
2023-04-27T22:23:59.648Z,58.02
2023-04-27T22:26:27.253Z,57.74
2023-04-27T22:28:54.653Z,58.37
2023-04-27T22:31:22.813Z,57.81
2023-04-27T22:33:56.122Z,59.33
2023-04-27T22:36:24.607Z,58.64
2023-04-27T22:38:52.740Z,59.06
2023-04-27T22:41:21.398Z,58.92
2023-04-27T22:43:49.988Z,58.39
2023-04-27T22:46:17.788Z,58.34
2023-04-27T22:48:45.379Z,58.56
2023-04-27T22:51:12.943Z,58.50
2023-04-27T22:53:43.514Z,58.41
2023-04-27T22:56:10.988Z,58.09
2023-04-27T22:58:38.322Z,58.18
2023-04-27T23:01:06.025Z,58.37
2023-04-27T23:03:33.664Z,58.62
2023-04-27T23:06:01.107Z,57.95
2023-04-27T23:08:29.269Z,58.10
2023-04-27T23:10:57.137Z,57.67
2023-04-27T23:13:27.886Z,57.51
2023-04-27T23:15:56.110Z,57.57
2023-04-27T23:18:23.807Z,57.95
2023-04-27T23:20:55.363Z,58.00
2023-04-27T23:23:23.313Z,57.42
2023-04-27T23:25:51.408Z,58.04
2023-04-27T23:28:19.529Z,57.70
2023-04-27T23:30:55.881Z,57.59
2023-04-27T23:33:24.730Z,57.10
2023-04-27T23:35:54.052Z,56.70
2023-04-27T23:38:23.438Z,57.11
2023-04-27T23:40:51.310Z,57.14
2023-04-27T23:43:21.426Z,57.05
2023-04-27T23:45:51.261Z,56.77
2023-04-27T23:48:20.141Z,56.91
2023-04-27T23:50:48.094Z,56.58
2023-04-27T23:53:15.903Z,56.45
2023-04-27T23:55:43.616Z,56.79
2023-04-27T23:58:11.507Z,56.37
